sensor_id;sensor_type;location;lat;lon;timestamp;P1;durP1;ratioP1;P2;durP2;ratioP2
11763;SDS011;5939;56.522;14.950;2024-03-08T00:01:00;4.80;;;3.03;;
11763;SDS011;5939;56.522;14.950;2024-03-08T00:03:26;5.70;;;2.90;;
11763;SDS011;5939;56.522;14.950;2024-03-08T00:05:53;4.73;;;2.53;;
11763;SDS011;5939;56.522;14.950;2024-03-08T00:08:19;5.73;;;2.90;;
11763;SDS011;5939;56.522;14.950;2024-03-08T00:10:45;5.80;;;3.33;;
11763;SDS011;5939;56.522;14.950;2024-03-08T00:13:11;4.27;;;2.57;;
11763;SDS011;5939;56.522;14.950;2024-03-08T00:15:36;5.13;;;2.70;;
11763;SDS011;5939;56.522;14.950;2024-03-08T00:18:02;4.17;;;2.67;;
11763;SDS011;5939;56.522;14.950;2024-03-08T00:20:28;3.07;;;2.40;;
11763;SDS011;5939;56.522;14.950;2024-03-08T00:22:54;3.87;;;2.73;;
11763;SDS011;5939;56.522;14.950;2024-03-08T00:25:22;5.13;;;3.00;;
11763;SDS011;5939;56.522;14.950;2024-03-08T00:27:49;4.23;;;2.70;;
11763;SDS011;5939;56.522;14.950;2024-03-08T00:30:14;4.17;;;2.40;;
11763;SDS011;5939;56.522;14.950;2024-03-08T00:32:40;5.87;;;2.80;;
11763;SDS011;5939;56.522;14.950;2024-03-08T00:35:06;5.07;;;2.80;;
11763;SDS011;5939;56.522;14.950;2024-03-08T00:37:32;5.20;;;2.97;;
11763;SDS011;5939;56.522;14.950;2024-03-08T00:39:59;3.67;;;2.57;;
11763;SDS011;5939;56.522;14.950;2024-03-08T00:42:25;4.83;;;2.60;;
11763;SDS011;5939;56.522;14.950;2024-03-08T00:44:51;3.83;;;2.80;;
11763;SDS011;5939;56.522;14.950;2024-03-08T00:47:16;4.57;;;2.77;;
11763;SDS011;5939;56.522;14.950;2024-03-08T00:49:42;3.57;;;2.70;;
11763;SDS011;5939;56.522;14.950;2024-03-08T00:52:08;3.83;;;2.67;;
11763;SDS011;5939;56.522;14.950;2024-03-08T00:54:34;3.70;;;2.63;;
11763;SDS011;5939;56.522;14.950;2024-03-08T00:57:03;4.57;;;2.80;;
11763;SDS011;5939;56.522;14.950;2024-03-08T00:59:29;2.73;;;2.43;;
11763;SDS011;5939;56.522;14.950;2024-03-08T01:01:57;3.60;;;2.50;;
11763;SDS011;5939;56.522;14.950;2024-03-08T01:04:25;3.63;;;2.57;;
11763;SDS011;5939;56.522;14.950;2024-03-08T01:06:53;4.17;;;3.00;;
11763;SDS011;5939;56.522;14.950;2024-03-08T01:09:21;4.80;;;2.40;;
11763;SDS011;5939;56.522;14.950;2024-03-08T01:11:51;3.43;;;2.77;;
11763;SDS011;5939;56.522;14.950;2024-03-08T01:14:19;3.57;;;2.60;;
11763;SDS011;5939;56.522;14.950;2024-03-08T01:16:48;6.10;;;2.80;;
11763;SDS011;5939;56.522;14.950;2024-03-08T01:19:15;4.73;;;2.80;;
11763;SDS011;5939;56.522;14.950;2024-03-08T01:21:40;4.67;;;2.83;;
11763;SDS011;5939;56.522;14.950;2024-03-08T01:24:07;3.80;;;2.70;;
11763;SDS011;5939;56.522;14.950;2024-03-08T01:26:32;4.30;;;2.47;;
11763;SDS011;5939;56.522;14.950;2024-03-08T01:29:01;3.10;;;2.63;;
11763;SDS011;5939;56.522;14.950;2024-03-08T01:31:30;3.93;;;2.67;;
11763;SDS011;5939;56.522;14.950;2024-03-08T01:33:56;5.67;;;2.87;;
11763;SDS011;5939;56.522;14.950;2024-03-08T01:36:22;3.03;;;2.17;;
11763;SDS011;5939;56.522;14.950;2024-03-08T01:38:49;6.70;;;3.03;;
11763;SDS011;5939;56.522;14.950;2024-03-08T01:41:15;4.20;;;2.70;;
11763;SDS011;5939;56.522;14.950;2024-03-08T01:43:42;3.37;;;2.40;;
11763;SDS011;5939;56.522;14.950;2024-03-08T01:46:08;2.90;;;2.40;;
11763;SDS011;5939;56.522;14.950;2024-03-08T01:48:36;3.40;;;2.57;;
11763;SDS011;5939;56.522;14.950;2024-03-08T01:51:02;3.67;;;2.40;;
11763;SDS011;5939;56.522;14.950;2024-03-08T01:53:29;3.20;;;2.30;;
11763;SDS011;5939;56.522;14.950;2024-03-08T01:55:56;4.30;;;3.13;;
11763;SDS011;5939;56.522;14.950;2024-03-08T01:58:23;3.00;;;2.50;;
11763;SDS011;5939;56.522;14.950;2024-03-08T02:00:49;5.23;;;2.77;;
11763;SDS011;5939;56.522;14.950;2024-03-08T02:03:16;5.03;;;2.57;;
11763;SDS011;5939;56.522;14.950;2024-03-08T02:05:42;5.40;;;2.53;;
11763;SDS011;5939;56.522;14.950;2024-03-08T02:08:08;2.90;;;2.40;;
11763;SDS011;5939;56.522;14.950;2024-03-08T02:10:39;3.37;;;2.40;;
11763;SDS011;5939;56.522;14.950;2024-03-08T02:13:06;3.80;;;2.33;;
11763;SDS011;5939;56.522;14.950;2024-03-08T02:18:17;4.23;;;2.83;;
11763;SDS011;5939;56.522;14.950;2024-03-08T02:20:43;4.73;;;2.60;;
11763;SDS011;5939;56.522;14.950;2024-03-08T02:23:12;4.00;;;2.43;;
11763;SDS011;5939;56.522;14.950;2024-03-08T02:25:39;3.13;;;2.33;;
11763;SDS011;5939;56.522;14.950;2024-03-08T02:28:05;3.13;;;2.30;;
11763;SDS011;5939;56.522;14.950;2024-03-08T02:30:31;5.00;;;2.33;;
11763;SDS011;5939;56.522;14.950;2024-03-08T02:32:56;3.87;;;2.60;;
11763;SDS011;5939;56.522;14.950;2024-03-08T02:35:22;3.63;;;2.53;;
11763;SDS011;5939;56.522;14.950;2024-03-08T02:37:48;4.17;;;2.50;;
11763;SDS011;5939;56.522;14.950;2024-03-08T02:40:14;3.93;;;2.47;;
11763;SDS011;5939;56.522;14.950;2024-03-08T02:42:39;4.17;;;2.60;;
11763;SDS011;5939;56.522;14.950;2024-03-08T02:45:05;3.97;;;2.27;;
11763;SDS011;5939;56.522;14.950;2024-03-08T02:47:31;4.33;;;2.63;;
11763;SDS011;5939;56.522;14.950;2024-03-08T02:49:57;4.17;;;2.67;;
11763;SDS011;5939;56.522;14.950;2024-03-08T02:52:23;3.53;;;2.30;;
11763;SDS011;5939;56.522;14.950;2024-03-08T02:54:48;3.07;;;2.10;;
11763;SDS011;5939;56.522;14.950;2024-03-08T02:57:14;2.83;;;2.20;;
11763;SDS011;5939;56.522;14.950;2024-03-08T02:59:40;4.00;;;2.43;;
11763;SDS011;5939;56.522;14.950;2024-03-08T03:02:06;3.87;;;2.83;;
11763;SDS011;5939;56.522;14.950;2024-03-08T03:04:32;4.80;;;2.60;;
11763;SDS011;5939;56.522;14.950;2024-03-08T03:06:59;3.07;;;2.40;;
11763;SDS011;5939;56.522;14.950;2024-03-08T03:09:25;2.90;;;2.60;;
11763;SDS011;5939;56.522;14.950;2024-03-08T03:11:53;3.90;;;2.10;;
11763;SDS011;5939;56.522;14.950;2024-03-08T03:14:20;3.73;;;2.27;;
11763;SDS011;5939;56.522;14.950;2024-03-08T03:16:46;3.30;;;2.50;;
11763;SDS011;5939;56.522;14.950;2024-03-08T03:19:12;2.83;;;2.17;;
11763;SDS011;5939;56.522;14.950;2024-03-08T03:21:38;3.07;;;2.17;;
11763;SDS011;5939;56.522;14.950;2024-03-08T03:24:04;3.70;;;2.43;;
11763;SDS011;5939;56.522;14.950;2024-03-08T03:26:35;3.73;;;2.37;;
11763;SDS011;5939;56.522;14.950;2024-03-08T03:29:03;3.60;;;2.60;;
11763;SDS011;5939;56.522;14.950;2024-03-08T03:31:31;5.63;;;2.87;;
11763;SDS011;5939;56.522;14.950;2024-03-08T03:33:57;3.70;;;2.40;;
11763;SDS011;5939;56.522;14.950;2024-03-08T03:36:30;3.63;;;2.67;;
11763;SDS011;5939;56.522;14.950;2024-03-08T03:38:56;4.47;;;2.40;;
11763;SDS011;5939;56.522;14.950;2024-03-08T03:41:32;3.70;;;2.40;;
11763;SDS011;5939;56.522;14.950;2024-03-08T03:43:57;2.77;;;2.27;;
11763;SDS011;5939;56.522;14.950;2024-03-08T03:46:24;2.47;;;2.10;;
11763;SDS011;5939;56.522;14.950;2024-03-08T03:48:49;4.07;;;2.67;;
11763;SDS011;5939;56.522;14.950;2024-03-08T03:51:15;2.80;;;2.30;;
11763;SDS011;5939;56.522;14.950;2024-03-08T03:53:40;2.50;;;2.07;;
11763;SDS011;5939;56.522;14.950;2024-03-08T03:56:06;3.20;;;2.40;;
11763;SDS011;5939;56.522;14.950;2024-03-08T03:58:32;3.00;;;2.13;;
11763;SDS011;5939;56.522;14.950;2024-03-08T04:00:58;3.47;;;2.23;;
11763;SDS011;5939;56.522;14.950;2024-03-08T04:03:24;4.67;;;2.47;;
11763;SDS011;5939;56.522;14.950;2024-03-08T04:05:50;4.63;;;2.47;;
11763;SDS011;5939;56.522;14.950;2024-03-08T04:08:16;4.77;;;2.17;;
11763;SDS011;5939;56.522;14.950;2024-03-08T04:10:42;2.80;;;2.20;;
11763;SDS011;5939;56.522;14.950;2024-03-08T04:13:07;3.10;;;2.23;;
11763;SDS011;5939;56.522;14.950;2024-03-08T04:15:34;3.77;;;2.30;;
11763;SDS011;5939;56.522;14.950;2024-03-08T04:18:00;2.77;;;2.30;;
11763;SDS011;5939;56.522;14.950;2024-03-08T04:20:26;3.43;;;2.30;;
11763;SDS011;5939;56.522;14.950;2024-03-08T04:22:52;2.53;;;2.00;;
11763;SDS011;5939;56.522;14.950;2024-03-08T04:25:18;4.10;;;2.43;;
11763;SDS011;5939;56.522;14.950;2024-03-08T04:27:45;2.47;;;2.13;;
11763;SDS011;5939;56.522;14.950;2024-03-08T04:30:12;3.10;;;2.30;;
11763;SDS011;5939;56.522;14.950;2024-03-08T04:32:37;2.87;;;2.30;;
11763;SDS011;5939;56.522;14.950;2024-03-08T04:35:03;3.63;;;2.17;;
11763;SDS011;5939;56.522;14.950;2024-03-08T04:37:29;4.37;;;2.60;;
11763;SDS011;5939;56.522;14.950;2024-03-08T04:39:55;2.70;;;2.07;;
11763;SDS011;5939;56.522;14.950;2024-03-08T04:42:20;2.73;;;2.30;;
11763;SDS011;5939;56.522;14.950;2024-03-08T04:44:47;2.90;;;2.03;;
11763;SDS011;5939;56.522;14.950;2024-03-08T04:47:13;3.20;;;2.17;;
11763;SDS011;5939;56.522;14.950;2024-03-08T04:49:39;2.07;;;1.87;;
11763;SDS011;5939;56.522;14.950;2024-03-08T04:52:04;2.33;;;1.93;;
11763;SDS011;5939;56.522;14.950;2024-03-08T04:54:30;4.17;;;2.10;;
11763;SDS011;5939;56.522;14.950;2024-03-08T04:56:56;3.30;;;2.30;;
11763;SDS011;5939;56.522;14.950;2024-03-08T04:59:22;2.50;;;2.20;;
11763;SDS011;5939;56.522;14.950;2024-03-08T05:01:49;3.00;;;1.93;;
11763;SDS011;5939;56.522;14.950;2024-03-08T05:04:14;3.83;;;2.30;;
11763;SDS011;5939;56.522;14.950;2024-03-08T05:06:40;2.80;;;2.33;;
11763;SDS011;5939;56.522;14.950;2024-03-08T05:09:06;4.10;;;2.43;;
11763;SDS011;5939;56.522;14.950;2024-03-08T05:11:39;2.50;;;2.30;;
11763;SDS011;5939;56.522;14.950;2024-03-08T05:14:05;3.97;;;2.37;;
11763;SDS011;5939;56.522;14.950;2024-03-08T05:16:31;2.87;;;1.90;;
11763;SDS011;5939;56.522;14.950;2024-03-08T05:18:56;3.47;;;2.40;;
11763;SDS011;5939;56.522;14.950;2024-03-08T05:21:22;2.80;;;2.20;;
11763;SDS011;5939;56.522;14.950;2024-03-08T05:23:48;2.27;;;2.00;;
11763;SDS011;5939;56.522;14.950;2024-03-08T05:26:15;3.27;;;2.00;;
11763;SDS011;5939;56.522;14.950;2024-03-08T05:28:41;3.77;;;2.47;;
11763;SDS011;5939;56.522;14.950;2024-03-08T05:31:07;4.07;;;2.13;;
11763;SDS011;5939;56.522;14.950;2024-03-08T05:33:33;3.33;;;2.30;;
11763;SDS011;5939;56.522;14.950;2024-03-08T05:36:02;3.13;;;1.90;;
11763;SDS011;5939;56.522;14.950;2024-03-08T05:38:28;2.23;;;1.83;;
11763;SDS011;5939;56.522;14.950;2024-03-08T05:40:54;2.13;;;1.87;;
11763;SDS011;5939;56.522;14.950;2024-03-08T05:43:20;3.27;;;2.03;;
11763;SDS011;5939;56.522;14.950;2024-03-08T05:45:46;2.60;;;2.20;;
11763;SDS011;5939;56.522;14.950;2024-03-08T05:48:13;2.10;;;1.77;;
11763;SDS011;5939;56.522;14.950;2024-03-08T05:50:38;1.97;;;1.77;;
11763;SDS011;5939;56.522;14.950;2024-03-08T05:53:04;2.67;;;2.10;;
11763;SDS011;5939;56.522;14.950;2024-03-08T05:55:33;3.30;;;2.10;;
11763;SDS011;5939;56.522;14.950;2024-03-08T05:58:00;2.97;;;2.17;;
11763;SDS011;5939;56.522;14.950;2024-03-08T06:00:26;2.67;;;2.03;;
11763;SDS011;5939;56.522;14.950;2024-03-08T06:02:52;2.10;;;1.77;;
11763;SDS011;5939;56.522;14.950;2024-03-08T06:05:17;2.67;;;2.00;;
11763;SDS011;5939;56.522;14.950;2024-03-08T06:07:43;2.50;;;2.00;;
11763;SDS011;5939;56.522;14.950;2024-03-08T06:10:09;2.93;;;2.30;;
11763;SDS011;5939;56.522;14.950;2024-03-08T06:12:37;2.70;;;2.07;;
11763;SDS011;5939;56.522;14.950;2024-03-08T06:15:09;2.73;;;2.10;;
11763;SDS011;5939;56.522;14.950;2024-03-08T06:17:35;3.47;;;1.97;;
11763;SDS011;5939;56.522;14.950;2024-03-08T06:20:01;2.50;;;1.90;;
11763;SDS011;5939;56.522;14.950;2024-03-08T06:22:28;2.93;;;2.23;;
11763;SDS011;5939;56.522;14.950;2024-03-08T06:24:55;2.27;;;2.03;;
11763;SDS011;5939;56.522;14.950;2024-03-08T06:27:21;2.53;;;2.00;;
11763;SDS011;5939;56.522;14.950;2024-03-08T06:29:47;2.60;;;1.93;;
11763;SDS011;5939;56.522;14.950;2024-03-08T06:32:14;2.37;;;1.70;;
11763;SDS011;5939;56.522;14.950;2024-03-08T06:34:40;2.93;;;2.00;;
11763;SDS011;5939;56.522;14.950;2024-03-08T06:37:06;2.87;;;2.03;;
11763;SDS011;5939;56.522;14.950;2024-03-08T06:39:32;2.83;;;1.50;;
11763;SDS011;5939;56.522;14.950;2024-03-08T06:41:59;3.13;;;1.90;;
11763;SDS011;5939;56.522;14.950;2024-03-08T06:44:25;3.20;;;1.93;;
11763;SDS011;5939;56.522;14.950;2024-03-08T06:46:50;2.97;;;1.87;;
11763;SDS011;5939;56.522;14.950;2024-03-08T06:49:16;3.67;;;2.00;;
11763;SDS011;5939;56.522;14.950;2024-03-08T06:51:42;2.93;;;2.17;;
11763;SDS011;5939;56.522;14.950;2024-03-08T06:54:07;2.20;;;2.00;;
11763;SDS011;5939;56.522;14.950;2024-03-08T06:56:34;3.37;;;2.00;;
11763;SDS011;5939;56.522;14.950;2024-03-08T06:59:00;4.97;;;2.33;;
11763;SDS011;5939;56.522;14.950;2024-03-08T07:01:28;3.13;;;2.00;;
11763;SDS011;5939;56.522;14.950;2024-03-08T07:03:57;2.50;;;1.97;;
11763;SDS011;5939;56.522;14.950;2024-03-08T07:06:27;3.90;;;1.93;;
11763;SDS011;5939;56.522;14.950;2024-03-08T07:08:53;2.80;;;1.87;;
11763;SDS011;5939;56.522;14.950;2024-03-08T07:11:19;2.70;;;2.17;;
11763;SDS011;5939;56.522;14.950;2024-03-08T07:13:45;3.40;;;1.97;;
11763;SDS011;5939;56.522;14.950;2024-03-08T07:16:11;3.47;;;2.30;;
11763;SDS011;5939;56.522;14.950;2024-03-08T07:18:37;3.23;;;2.00;;
11763;SDS011;5939;56.522;14.950;2024-03-08T07:21:05;2.10;;;1.90;;
11763;SDS011;5939;56.522;14.950;2024-03-08T07:23:30;2.03;;;1.73;;
11763;SDS011;5939;56.522;14.950;2024-03-08T07:26:15;2.57;;;2.17;;
11763;SDS011;5939;56.522;14.950;2024-03-08T07:28:41;3.30;;;2.07;;
11763;SDS011;5939;56.522;14.950;2024-03-08T07:31:07;2.43;;;2.10;;
11763;SDS011;5939;56.522;14.950;2024-03-08T07:33:41;3.20;;;1.97;;
11763;SDS011;5939;56.522;14.950;2024-03-08T07:36:07;3.27;;;2.17;;
11763;SDS011;5939;56.522;14.950;2024-03-08T07:38:33;3.10;;;2.10;;
11763;SDS011;5939;56.522;14.950;2024-03-08T07:40:59;2.83;;;1.90;;
11763;SDS011;5939;56.522;14.950;2024-03-08T07:43:25;2.30;;;1.90;;
11763;SDS011;5939;56.522;14.950;2024-03-08T07:45:51;3.00;;;2.17;;
11763;SDS011;5939;56.522;14.950;2024-03-08T07:48:18;3.77;;;2.63;;
11763;SDS011;5939;56.522;14.950;2024-03-08T07:50:43;5.57;;;2.60;;
11763;SDS011;5939;56.522;14.950;2024-03-08T07:53:09;2.33;;;2.07;;
11763;SDS011;5939;56.522;14.950;2024-03-08T07:55:35;2.40;;;1.80;;
11763;SDS011;5939;56.522;14.950;2024-03-08T07:58:01;2.43;;;2.23;;
11763;SDS011;5939;56.522;14.950;2024-03-08T08:00:28;3.80;;;2.47;;
11763;SDS011;5939;56.522;14.950;2024-03-08T08:02:55;3.93;;;2.43;;
11763;SDS011;5939;56.522;14.950;2024-03-08T08:05:21;3.00;;;2.10;;
11763;SDS011;5939;56.522;14.950;2024-03-08T08:07:46;3.10;;;2.10;;
11763;SDS011;5939;56.522;14.950;2024-03-08T08:10:12;3.43;;;2.20;;
11763;SDS011;5939;56.522;14.950;2024-03-08T08:12:49;2.83;;;2.27;;
11763;SDS011;5939;56.522;14.950;2024-03-08T08:15:15;2.43;;;1.90;;
11763;SDS011;5939;56.522;14.950;2024-03-08T08:17:44;2.43;;;1.93;;
11763;SDS011;5939;56.522;14.950;2024-03-08T08:20:11;2.83;;;2.40;;
11763;SDS011;5939;56.522;14.950;2024-03-08T08:22:38;2.57;;;2.10;;
11763;SDS011;5939;56.522;14.950;2024-03-08T08:25:05;2.60;;;2.20;;
11763;SDS011;5939;56.522;14.950;2024-03-08T08:27:31;2.83;;;2.17;;
11763;SDS011;5939;56.522;14.950;2024-03-08T08:29:58;4.43;;;2.63;;
11763;SDS011;5939;56.522;14.950;2024-03-08T08:32:24;3.33;;;2.13;;
11763;SDS011;5939;56.522;14.950;2024-03-08T08:34:49;2.57;;;2.10;;
11763;SDS011;5939;56.522;14.950;2024-03-08T08:37:15;3.67;;;2.30;;
11763;SDS011;5939;56.522;14.950;2024-03-08T08:39:41;2.60;;;2.40;;
11763;SDS011;5939;56.522;14.950;2024-03-08T08:42:07;2.53;;;2.20;;
11763;SDS011;5939;56.522;14.950;2024-03-08T08:44:34;2.63;;;2.07;;
11763;SDS011;5939;56.522;14.950;2024-03-08T08:47:00;3.40;;;2.23;;
11763;SDS011;5939;56.522;14.950;2024-03-08T08:49:28;3.17;;;2.27;;
11763;SDS011;5939;56.522;14.950;2024-03-08T08:51:55;2.53;;;2.13;;
11763;SDS011;5939;56.522;14.950;2024-03-08T08:54:23;3.67;;;2.27;;
11763;SDS011;5939;56.522;14.950;2024-03-08T08:56:50;3.03;;;2.30;;
11763;SDS011;5939;56.522;14.950;2024-03-08T08:59:15;2.90;;;2.30;;
11763;SDS011;5939;56.522;14.950;2024-03-08T09:01:44;4.17;;;2.20;;
11763;SDS011;5939;56.522;14.950;2024-03-08T09:04:13;4.70;;;2.20;;
11763;SDS011;5939;56.522;14.950;2024-03-08T09:06:39;4.10;;;2.40;;
11763;SDS011;5939;56.522;14.950;2024-03-08T09:09:07;4.40;;;2.47;;
11763;SDS011;5939;56.522;14.950;2024-03-08T09:11:38;3.03;;;2.30;;
11763;SDS011;5939;56.522;14.950;2024-03-08T09:14:06;4.10;;;2.10;;
11763;SDS011;5939;56.522;14.950;2024-03-08T09:16:32;3.33;;;2.40;;
11763;SDS011;5939;56.522;14.950;2024-03-08T09:18:58;3.13;;;2.50;;
11763;SDS011;5939;56.522;14.950;2024-03-08T09:21:24;3.90;;;2.23;;
11763;SDS011;5939;56.522;14.950;2024-03-08T09:23:52;3.73;;;2.13;;
11763;SDS011;5939;56.522;14.950;2024-03-08T09:26:18;4.03;;;2.40;;
11763;SDS011;5939;56.522;14.950;2024-03-08T09:28:44;3.60;;;2.30;;
11763;SDS011;5939;56.522;14.950;2024-03-08T09:31:10;3.40;;;2.70;;
11763;SDS011;5939;56.522;14.950;2024-03-08T09:33:36;3.60;;;2.13;;
11763;SDS011;5939;56.522;14.950;2024-03-08T09:36:04;4.20;;;2.33;;
11763;SDS011;5939;56.522;14.950;2024-03-08T09:38:30;2.30;;;2.10;;
11763;SDS011;5939;56.522;14.950;2024-03-08T09:40:56;3.67;;;2.27;;
11763;SDS011;5939;56.522;14.950;2024-03-08T09:43:22;3.07;;;2.10;;
11763;SDS011;5939;56.522;14.950;2024-03-08T09:45:49;3.33;;;2.40;;
11763;SDS011;5939;56.522;14.950;2024-03-08T09:48:16;3.33;;;2.10;;
11763;SDS011;5939;56.522;14.950;2024-03-08T09:50:44;5.17;;;2.20;;
11763;SDS011;5939;56.522;14.950;2024-03-08T09:53:12;4.20;;;1.97;;
11763;SDS011;5939;56.522;14.950;2024-03-08T09:55:38;2.37;;;1.97;;
11763;SDS011;5939;56.522;14.950;2024-03-08T09:58:13;2.80;;;2.20;;
11763;SDS011;5939;56.522;14.950;2024-03-08T10:00:46;2.87;;;2.20;;
11763;SDS011;5939;56.522;14.950;2024-03-08T10:03:12;2.30;;;1.70;;
11763;SDS011;5939;56.522;14.950;2024-03-08T10:05:41;3.50;;;2.13;;
11763;SDS011;5939;56.522;14.950;2024-03-08T10:08:08;3.30;;;2.10;;
11763;SDS011;5939;56.522;14.950;2024-03-08T10:10:34;3.53;;;2.00;;
11763;SDS011;5939;56.522;14.950;2024-03-08T10:13:00;2.20;;;1.87;;
11763;SDS011;5939;56.522;14.950;2024-03-08T10:15:29;2.47;;;1.73;;
11763;SDS011;5939;56.522;14.950;2024-03-08T10:17:57;2.47;;;1.87;;
11763;SDS011;5939;56.522;14.950;2024-03-08T10:20:23;2.70;;;1.93;;
11763;SDS011;5939;56.522;14.950;2024-03-08T10:22:49;2.43;;;1.83;;
11763;SDS011;5939;56.522;14.950;2024-03-08T10:25:14;2.67;;;2.07;;
11763;SDS011;5939;56.522;14.950;2024-03-08T10:27:40;4.43;;;2.00;;
11763;SDS011;5939;56.522;14.950;2024-03-08T10:30:16;2.00;;;1.80;;
11763;SDS011;5939;56.522;14.950;2024-03-08T10:32:46;2.20;;;1.80;;
11763;SDS011;5939;56.522;14.950;2024-03-08T10:35:13;2.27;;;1.53;;
11763;SDS011;5939;56.522;14.950;2024-03-08T10:37:45;3.53;;;2.03;;
11763;SDS011;5939;56.522;14.950;2024-03-08T10:40:23;2.13;;;1.60;;
11763;SDS011;5939;56.522;14.950;2024-03-08T10:42:54;2.00;;;1.80;;
11763;SDS011;5939;56.522;14.950;2024-03-08T10:50:31;2.87;;;1.80;;
11763;SDS011;5939;56.522;14.950;2024-03-08T10:52:59;2.67;;;1.80;;
11763;SDS011;5939;56.522;14.950;2024-03-08T10:55:26;2.30;;;1.60;;
11763;SDS011;5939;56.522;14.950;2024-03-08T10:57:53;2.23;;;1.80;;
11763;SDS011;5939;56.522;14.950;2024-03-08T11:00:19;2.63;;;1.70;;
11763;SDS011;5939;56.522;14.950;2024-03-08T11:02:51;2.43;;;1.93;;
11763;SDS011;5939;56.522;14.950;2024-03-08T11:05:37;1.80;;;1.47;;
11763;SDS011;5939;56.522;14.950;2024-03-08T11:08:17;4.27;;;1.90;;
11763;SDS011;5939;56.522;14.950;2024-03-08T11:10:47;4.67;;;1.60;;
11763;SDS011;5939;56.522;14.950;2024-03-08T11:16:01;2.83;;;1.60;;
11763;SDS011;5939;56.522;14.950;2024-03-08T11:18:32;4.20;;;1.57;;
11763;SDS011;5939;56.522;14.950;2024-03-08T11:21:02;3.10;;;1.77;;
11763;SDS011;5939;56.522;14.950;2024-03-08T11:23:31;3.90;;;1.53;;
11763;SDS011;5939;56.522;14.950;2024-03-08T11:25:58;1.73;;;1.50;;
11763;SDS011;5939;56.522;14.950;2024-03-08T11:28:24;1.87;;;1.40;;
11763;SDS011;5939;56.522;14.950;2024-03-08T11:33:27;4.10;;;1.80;;
11763;SDS011;5939;56.522;14.950;2024-03-08T11:36:19;1.80;;;1.60;;
11763;SDS011;5939;56.522;14.950;2024-03-08T11:38:47;1.57;;;1.47;;
11763;SDS011;5939;56.522;14.950;2024-03-08T11:41:20;2.70;;;1.60;;
11763;SDS011;5939;56.522;14.950;2024-03-08T11:43:48;2.20;;;1.70;;
11763;SDS011;5939;56.522;14.950;2024-03-08T11:46:26;1.63;;;1.30;;
11763;SDS011;5939;56.522;14.950;2024-03-08T11:48:54;1.93;;;1.43;;
11763;SDS011;5939;56.522;14.950;2024-03-08T11:51:21;2.87;;;1.33;;
11763;SDS011;5939;56.522;14.950;2024-03-08T11:53:48;1.50;;;1.40;;
11763;SDS011;5939;56.522;14.950;2024-03-08T11:56:15;2.63;;;1.60;;
11763;SDS011;5939;56.522;14.950;2024-03-08T11:58:41;2.20;;;1.40;;
11763;SDS011;5939;56.522;14.950;2024-03-08T12:01:17;2.87;;;1.50;;
11763;SDS011;5939;56.522;14.950;2024-03-08T12:03:43;2.07;;;1.50;;
11763;SDS011;5939;56.522;14.950;2024-03-08T12:06:09;2.60;;;1.50;;
11763;SDS011;5939;56.522;14.950;2024-03-08T12:08:35;1.70;;;1.50;;
11763;SDS011;5939;56.522;14.950;2024-03-08T12:11:03;1.57;;;1.37;;
11763;SDS011;5939;56.522;14.950;2024-03-08T12:13:30;1.53;;;1.43;;
11763;SDS011;5939;56.522;14.950;2024-03-08T12:15:57;3.37;;;1.67;;
11763;SDS011;5939;56.522;14.950;2024-03-08T12:18:24;2.17;;;1.50;;
11763;SDS011;5939;56.522;14.950;2024-03-08T12:20:51;1.57;;;1.47;;
11763;SDS011;5939;56.522;14.950;2024-03-08T12:23:28;2.33;;;1.57;;
11763;SDS011;5939;56.522;14.950;2024-03-08T12:25:54;1.73;;;1.50;;
11763;SDS011;5939;56.522;14.950;2024-03-08T12:28:19;1.90;;;1.40;;
11763;SDS011;5939;56.522;14.950;2024-03-08T12:30:47;2.50;;;1.50;;
11763;SDS011;5939;56.522;14.950;2024-03-08T12:33:15;2.03;;;1.50;;
11763;SDS011;5939;56.522;14.950;2024-03-08T12:35:49;1.83;;;1.67;;
11763;SDS011;5939;56.522;14.950;2024-03-08T12:38:20;1.23;;;1.13;;
11763;SDS011;5939;56.522;14.950;2024-03-08T12:40:50;1.83;;;1.30;;
11763;SDS011;5939;56.522;14.950;2024-03-08T12:43:16;1.50;;;1.40;;
11763;SDS011;5939;56.522;14.950;2024-03-08T12:45:42;2.10;;;1.70;;
11763;SDS011;5939;56.522;14.950;2024-03-08T12:48:12;2.20;;;1.60;;
11763;SDS011;5939;56.522;14.950;2024-03-08T12:50:40;1.47;;;1.37;;
11763;SDS011;5939;56.522;14.950;2024-03-08T12:53:08;1.80;;;1.70;;
11763;SDS011;5939;56.522;14.950;2024-03-08T12:55:34;1.73;;;1.30;;
11763;SDS011;5939;56.522;14.950;2024-03-08T12:58:00;1.57;;;1.33;;
11763;SDS011;5939;56.522;14.950;2024-03-08T13:00:25;3.50;;;1.67;;
11763;SDS011;5939;56.522;14.950;2024-03-08T13:02:53;1.37;;;1.17;;
11763;SDS011;5939;56.522;14.950;2024-03-08T13:05:19;1.80;;;1.60;;
11763;SDS011;5939;56.522;14.950;2024-03-08T13:07:45;1.80;;;1.60;;
11763;SDS011;5939;56.522;14.950;2024-03-08T13:10:14;2.23;;;1.40;;
11763;SDS011;5939;56.522;14.950;2024-03-08T13:12:41;1.90;;;1.40;;
11763;SDS011;5939;56.522;14.950;2024-03-08T13:15:10;1.60;;;1.30;;
11763;SDS011;5939;56.522;14.950;2024-03-08T13:17:40;3.03;;;1.50;;
11763;SDS011;5939;56.522;14.950;2024-03-08T13:20:07;3.63;;;1.73;;
11763;SDS011;5939;56.522;14.950;2024-03-08T13:22:33;1.40;;;1.30;;
11763;SDS011;5939;56.522;14.950;2024-03-08T13:24:59;1.50;;;1.40;;
11763;SDS011;5939;56.522;14.950;2024-03-08T13:27:27;1.97;;;1.70;;
11763;SDS011;5939;56.522;14.950;2024-03-08T13:29:53;2.70;;;1.43;;
11763;SDS011;5939;56.522;14.950;2024-03-08T13:32:18;1.87;;;1.50;;
11763;SDS011;5939;56.522;14.950;2024-03-08T13:34:47;1.47;;;1.37;;
11763;SDS011;5939;56.522;14.950;2024-03-08T13:37:15;2.33;;;1.70;;
11763;SDS011;5939;56.522;14.950;2024-03-08T13:39:41;2.23;;;1.57;;
11763;SDS011;5939;56.522;14.950;2024-03-08T13:42:15;2.33;;;1.63;;
11763;SDS011;5939;56.522;14.950;2024-03-08T13:44:45;3.27;;;1.57;;
11763;SDS011;5939;56.522;14.950;2024-03-08T13:47:11;2.27;;;1.70;;
11763;SDS011;5939;56.522;14.950;2024-03-08T13:49:38;2.07;;;1.87;;
11763;SDS011;5939;56.522;14.950;2024-03-08T13:52:04;1.57;;;1.47;;
11763;SDS011;5939;56.522;14.950;2024-03-08T13:54:31;2.73;;;1.53;;
11763;SDS011;5939;56.522;14.950;2024-03-08T13:56:57;1.90;;;1.53;;
11763;SDS011;5939;56.522;14.950;2024-03-08T13:59:23;1.97;;;1.53;;
11763;SDS011;5939;56.522;14.950;2024-03-08T14:01:49;2.50;;;1.60;;
11763;SDS011;5939;56.522;14.950;2024-03-08T14:04:15;1.70;;;1.50;;
11763;SDS011;5939;56.522;14.950;2024-03-08T14:06:44;2.20;;;1.77;;
11763;SDS011;5939;56.522;14.950;2024-03-08T14:09:10;1.97;;;1.60;;
11763;SDS011;5939;56.522;14.950;2024-03-08T14:11:45;2.07;;;1.60;;
11763;SDS011;5939;56.522;14.950;2024-03-08T14:14:11;2.60;;;1.80;;
11763;SDS011;5939;56.522;14.950;2024-03-08T14:16:40;1.57;;;1.47;;
11763;SDS011;5939;56.522;14.950;2024-03-08T14:19:05;3.37;;;1.70;;
11763;SDS011;5939;56.522;14.950;2024-03-08T14:21:31;1.63;;;1.40;;
11763;SDS011;5939;56.522;14.950;2024-03-08T14:23:58;1.83;;;1.67;;
11763;SDS011;5939;56.522;14.950;2024-03-08T14:26:23;2.20;;;1.50;;
11763;SDS011;5939;56.522;14.950;2024-03-08T14:28:49;1.70;;;1.60;;
11763;SDS011;5939;56.522;14.950;2024-03-08T14:31:22;1.70;;;1.50;;
11763;SDS011;5939;56.522;14.950;2024-03-08T14:33:50;1.93;;;1.53;;
11763;SDS011;5939;56.522;14.950;2024-03-08T14:36:17;2.17;;;1.70;;
11763;SDS011;5939;56.522;14.950;2024-03-08T14:38:45;2.10;;;1.70;;
11763;SDS011;5939;56.522;14.950;2024-03-08T14:41:12;2.20;;;1.60;;
11763;SDS011;5939;56.522;14.950;2024-03-08T14:43:41;2.10;;;1.77;;
11763;SDS011;5939;56.522;14.950;2024-03-08T14:46:09;2.70;;;1.87;;
11763;SDS011;5939;56.522;14.950;2024-03-08T14:48:39;2.40;;;1.60;;
11763;SDS011;5939;56.522;14.950;2024-03-08T14:51:06;2.47;;;1.70;;
11763;SDS011;5939;56.522;14.950;2024-03-08T14:53:35;2.43;;;1.40;;
11763;SDS011;5939;56.522;14.950;2024-03-08T14:56:01;2.00;;;1.40;;
11763;SDS011;5939;56.522;14.950;2024-03-08T14:58:26;1.63;;;1.50;;
11763;SDS011;5939;56.522;14.950;2024-03-08T15:00:52;1.70;;;1.60;;